Time;durP1;ratioP1;P1;durP2;ratioP2;P2;SDS_P1;SDS_P2;PMS_P1;PMS_P2;Temp;Humidity;BMP_temperature;BMP_pressure;BME280_temperature;BME280_humidity;BME280_pressure;Samples;Min_cycle;Max_cycle;Signal;HPM_P1;HPM_P2
2022/09/29 00:02:09;;;;;;;2.40;1.90;;;;;;;;;;5074948;28;20451;-73
2022/09/29 00:04:37;;;;;;;3.13;1.60;;;;;;;;;;5074203;28;20476;-73
2022/09/29 00:07:04;;;;;;;7.63;1.70;;;;;;;;;;5074738;28;20447;-73
2022/09/29 00:09:31;;;;;;;3.20;1.50;;;;;;;;;;5074439;28;20450;-73
2022/09/29 00:11:59;;;;;;;2.27;1.50;;;;;;;;;;5074796;28;20458;-73
2022/09/29 00:14:26;;;;;;;3.80;1.57;;;;;;;;;;5074063;28;20982;-73
2022/09/29 00:16:53;;;;;;;3.00;2.30;;;;;;;;;;5074837;28;20443;-73
2022/09/29 00:19:21;;;;;;;2.13;1.53;;;;;;;;;;5074501;28;20447;-73
2022/09/29 00:21:48;;;;;;;2.73;1.47;;;;;;;;;;5074186;28;20439;-73
2022/09/29 00:24:15;;;;;;;8.43;1.60;;;;;;;;;;5074098;28;20839;-73
2022/09/29 00:26:45;;;;;;;2.70;1.60;;;;;;;;;;5074093;28;21020;-72
2022/09/29 00:29:14;;;;;;;1.80;1.60;;;;;;;;;;5074208;28;20844;-72
2022/09/29 00:31:41;;;;;;;2.23;1.60;;;;;;;;;;5074021;28;20458;-72
2022/09/29 00:34:08;;;;;;;2.10;1.40;;;;;;;;;;5073873;28;20465;-72
2022/09/29 00:36:35;;;;;;;2.00;1.60;;;;;;;;;;5073741;28;20447;-72
2022/09/29 00:39:02;;;;;;;2.33;1.70;;;;;;;;;;5073995;28;20821;-72
2022/09/29 00:41:31;;;;;;;2.70;1.20;;;;;;;;;;5073806;28;20451;-73
2022/09/29 00:43:59;;;;;;;2.37;1.77;;;;;;;;;;5073631;28;20459;-73
2022/09/29 00:46:40;;;;;;;2.13;1.23;;;;;;;;;;5073769;28;20449;-73
2022/09/29 00:49:11;;;;;;;4.70;1.63;;;;;;;;;;5073677;28;20490;-73
2022/09/29 00:51:40;;;;;;;5.00;3.77;;;;;;;;;;5073703;28;20448;-73
2022/09/29 00:54:07;;;;;;;3.10;2.50;;;;;;;;;;5073336;28;20510;-73
2022/09/29 00:56:36;;;;;;;2.10;1.50;;;;;;;;;;5073671;28;20439;-73
2022/09/29 00:59:05;;;;;;;4.40;2.40;;;;;;;;;;5073632;28;20447;-73
2022/09/29 01:01:33;;;;;;;2.70;2.20;;;;;;;;;;5073332;28;20460;-73
2022/09/29 01:04:02;;;;;;;3.87;2.03;;;;;;;;;;5073361;28;20456;-73
2022/09/29 01:06:31;;;;;;;3.33;1.80;;;;;;;;;;5073540;28;20457;-73
2022/09/29 01:09:00;;;;;;;2.83;1.47;;;;;;;;;;5073419;28;21020;-73
2022/09/29 01:11:28;;;;;;;1.97;1.37;;;;;;;;;;5073327;28;20515;-73
2022/09/29 01:13:56;;;;;;;1.97;1.40;;;;;;;;;;5073115;28;20502;-73
2022/09/29 01:16:23;;;;;;;2.33;1.60;;;;;;;;;;5073140;28;20463;-72
2022/09/29 01:18:51;;;;;;;2.47;1.80;;;;;;;;;;5073332;28;20450;-72
2022/09/29 01:21:24;;;;;;;1.93;1.50;;;;;;;;;;5073161;28;20455;-72
2022/09/29 01:24:23;;;;;;;1.60;1.40;;;;;;;;;;5072901;28;20452;-72
2022/09/29 01:27:07;;;;;;;3.00;1.40;;;;;;;;;;5073153;28;20448;-72
2022/09/29 01:29:47;;;;;;;1.80;1.50;;;;;;;;;;5073111;28;20502;-72
2022/09/29 01:32:20;;;;;;;2.30;1.70;;;;;;;;;;5073304;28;20466;-73
2022/09/29 01:34:52;;;;;;;2.07;1.50;;;;;;;;;;5072675;28;21049;-73
2022/09/29 01:37:21;;;;;;;2.23;1.80;;;;;;;;;;5073084;28;20470;-73
2022/09/29 01:39:52;;;;;;;3.13;1.37;;;;;;;;;;5072945;28;20451;-73
2022/09/29 01:42:22;;;;;;;3.10;1.50;;;;;;;;;;5073256;28;20444;-73
2022/09/29 01:44:51;;;;;;;2.13;1.67;;;;;;;;;;5072762;28;20985;-73
2022/09/29 01:47:21;;;;;;;1.93;1.73;;;;;;;;;;5072839;28;20451;-73
2022/09/29 01:49:51;;;;;;;2.73;1.60;;;;;;;;;;5072874;28;20484;-73
2022/09/29 01:52:19;;;;;;;2.73;2.03;;;;;;;;;;5073093;28;20933;-73
2022/09/29 01:54:49;;;;;;;2.30;2.10;;;;;;;;;;5072574;28;20476;-73
2022/09/29 01:57:18;;;;;;;3.90;2.53;;;;;;;;;;5072769;28;20451;-73
2022/09/29 01:59:48;;;;;;;3.13;2.13;;;;;;;;;;5072689;28;20949;-73
2022/09/29 02:02:17;;;;;;;2.60;2.00;;;;;;;;;;5072745;28;20455;-73
2022/09/29 02:04:47;;;;;;;2.03;1.70;;;;;;;;;;5072429;28;20464;-73
2022/09/29 02:07:17;;;;;;;2.77;1.80;;;;;;;;;;5072945;28;20443;-73
2022/09/29 02:09:47;;;;;;;3.20;2.17;;;;;;;;;;5072653;28;20498;-73
2022/09/29 02:12:16;;;;;;;3.13;1.90;;;;;;;;;;5072580;28;20455;-73
2022/09/29 02:14:45;;;;;;;2.60;1.87;;;;;;;;;;5072302;28;20514;-73
2022/09/29 02:17:18;;;;;;;3.53;2.10;;;;;;;;;;5072580;28;20456;-73
2022/09/29 02:19:47;;;;;;;5.53;2.40;;;;;;;;;;5072733;28;20952;-72
2022/09/29 02:22:15;;;;;;;2.00;1.80;;;;;;;;;;5072840;28;20473;-72
2022/09/29 02:24:42;;;;;;;3.57;2.40;;;;;;;;;;5072097;28;20479;-72
2022/09/29 02:27:10;;;;;;;2.87;2.30;;;;;;;;;;5072580;28;20933;-72
2022/09/29 02:29:38;;;;;;;4.10;2.60;;;;;;;;;;5072517;28;20488;-72
2022/09/29 02:32:08;;;;;;;3.53;2.60;;;;;;;;;;5072752;28;20483;-72
2022/09/29 02:34:40;;;;;;;3.73;2.53;;;;;;;;;;5072089;28;20475;-72
2022/09/29 02:37:15;;;;;;;3.90;2.17;;;;;;;;;;5073796;28;20467;-72
2022/09/29 02:39:45;;;;;;;3.40;2.80;;;;;;;;;;5076187;28;20454;-72
2022/09/29 02:42:19;;;;;;;4.43;2.53;;;;;;;;;;5076239;28;20466;-72
2022/09/29 02:44:58;;;;;;;2.83;2.40;;;;;;;;;;5075665;28;20964;-72
2022/09/29 02:47:43;;;;;;;3.50;2.60;;;;;;;;;;5075861;28;20463;-72
2022/09/29 02:50:26;;;;;;;3.40;2.47;;;;;;;;;;5075979;28;20494;-72
2022/09/29 02:52:58;;;;;;;7.63;4.90;;;;;;;;;;5076116;28;20458;-72
2022/09/29 02:55:29;;;;;;;6.10;4.30;;;;;;;;;;5075684;28;20505;-72
2022/09/29 02:57:58;;;;;;;4.77;2.90;;;;;;;;;;5076076;28;20450;-72
2022/09/29 03:00:27;;;;;;;4.17;2.90;;;;;;;;;;5075816;28;20455;-72
2022/09/29 03:02:54;;;;;;;3.33;2.50;;;;;;;;;;5075893;28;20781;-72
2022/09/29 03:05:22;;;;;;;3.20;2.33;;;;;;;;;;5075543;28;20467;-72
2022/09/29 03:07:50;;;;;;;4.10;2.57;;;;;;;;;;5075620;28;20491;-72
2022/09/29 03:10:19;;;;;;;2.40;2.10;;;;;;;;;;5075676;28;20490;-72
2022/09/29 03:12:46;;;;;;;13.40;6.87;;;;;;;;;;5075649;28;20546;-72
2022/09/29 03:15:13;;;;;;;7.60;3.57;;;;;;;;;;5075331;28;20467;-72
2022/09/29 03:17:41;;;;;;;2.87;2.40;;;;;;;;;;5075534;28;20452;-72
2022/09/29 03:20:08;;;;;;;3.63;2.73;;;;;;;;;;5075556;28;20930;-72
2022/09/29 03:22:36;;;;;;;5.33;2.33;;;;;;;;;;5075562;28;20454;-72
2022/09/29 03:25:04;;;;;;;3.40;2.10;;;;;;;;;;5075173;28;20478;-72
2022/09/29 03:27:35;;;;;;;2.57;2.30;;;;;;;;;;5075245;28;20505;-72
2022/09/29 03:30:02;;;;;;;3.50;3.10;;;;;;;;;;5075242;28;20483;-72
2022/09/29 03:32:29;;;;;;;10.47;8.00;;;;;;;;;;5075203;28;20534;-72
2022/09/29 03:34:57;;;;;;;4.80;3.63;;;;;;;;;;5075009;28;20828;-72
2022/09/29 03:37:24;;;;;;;4.40;3.27;;;;;;;;;;5075065;28;20497;-72
2022/09/29 03:39:51;;;;;;;4.07;2.90;;;;;;;;;;5075124;28;20458;-72
2022/09/29 03:42:21;;;;;;;8.80;4.57;;;;;;;;;;5075258;28;20941;-72
2022/09/29 03:44:50;;;;;;;3.73;3.17;;;;;;;;;;5074869;28;20991;-72
2022/09/29 03:47:17;;;;;;;7.00;4.80;;;;;;;;;;5074584;28;20455;-72
2022/09/29 03:49:44;;;;;;;5.70;4.30;;;;;;;;;;5074849;28;20502;-72
2022/09/29 03:52:11;;;;;;;7.50;5.63;;;;;;;;;;5074942;28;20447;-73
2022/09/29 03:54:38;;;;;;;11.20;6.07;;;;;;;;;;5074422;28;20467;-72
2022/09/29 03:57:05;;;;;;;6.57;5.00;;;;;;;;;;5074843;28;20478;-72
2022/09/29 03:59:32;;;;;;;6.37;4.00;;;;;;;;;;5074753;28;20451;-72
2022/09/29 04:02:01;;;;;;;7.87;3.90;;;;;;;;;;5075032;28;20804;-72
2022/09/29 04:04:28;;;;;;;6.83;5.23;;;;;;;;;;5074302;28;20476;-72
2022/09/29 04:06:55;;;;;;;7.40;4.53;;;;;;;;;;5074448;28;20451;-72
2022/09/29 04:09:23;;;;;;;8.83;5.10;;;;;;;;;;5074679;28;20499;-72
2022/09/29 04:11:50;;;;;;;7.53;5.77;;;;;;;;;;5074488;28;20451;-72
2022/09/29 04:14:17;;;;;;;7.63;5.33;;;;;;;;;;5074274;28;20467;-72
2022/09/29 04:16:44;;;;;;;7.87;5.90;;;;;;;;;;5074077;28;20448;-72
2022/09/29 04:19:12;;;;;;;10.20;6.87;;;;;;;;;;5074326;28;20487;-72
2022/09/29 04:21:39;;;;;;;9.60;7.20;;;;;;;;;;5074210;28;20458;-72
2022/09/29 04:24:07;;;;;;;9.67;7.53;;;;;;;;;;5074070;28;20451;-72
2022/09/29 04:26:34;;;;;;;10.33;7.40;;;;;;;;;;5074238;28;20454;-72
2022/09/29 04:29:01;;;;;;;9.30;7.27;;;;;;;;;;5074050;28;20488;-72
2022/09/29 04:31:28;;;;;;;8.67;6.50;;;;;;;;;;5074087;28;20461;-72
2022/09/29 04:33:55;;;;;;;11.37;6.83;;;;;;;;;;5073851;28;20877;-72
2022/09/29 04:36:24;;;;;;;8.80;6.70;;;;;;;;;;5073886;28;20448;-72
2022/09/29 04:38:52;;;;;;;11.20;7.00;;;;;;;;;;5074065;28;20554;-72
2022/09/29 04:41:19;;;;;;;9.83;6.63;;;;;;;;;;5074021;28;20509;-72
2022/09/29 04:43:46;;;;;;;14.50;9.30;;;;;;;;;;5073707;28;20470;-72
2022/09/29 04:46:15;;;;;;;12.20;7.40;;;;;;;;;;5073614;28;20475;-72
2022/09/29 04:48:42;;;;;;;11.73;7.43;;;;;;;;;;5073673;28;20492;-72
2022/09/29 04:51:10;;;;;;;13.30;7.80;;;;;;;;;;5073820;28;20974;-72
2022/09/29 04:53:38;;;;;;;12.10;7.80;;;;;;;;;;5073574;28;20443;-72
2022/09/29 04:56:06;;;;;;;21.13;10.10;;;;;;;;;;5073515;28;20819;-72
2022/09/29 04:58:34;;;;;;;15.37;10.17;;;;;;;;;;5073425;28;20814;-72
2022/09/29 05:01:05;;;;;;;15.60;9.37;;;;;;;;;;5072955;28;20444;-72
2022/09/29 05:03:32;;;;;;;16.30;9.50;;;;;;;;;;5072881;28;20452;-72
2022/09/29 05:05:59;;;;;;;9.83;7.30;;;;;;;;;;5073364;28;20472;-72
2022/09/29 05:08:26;;;;;;;7.47;6.27;;;;;;;;;;5073319;28;20456;-72
2022/09/29 05:10:55;;;;;;;11.70;8.30;;;;;;;;;;5073415;28;20494;-72
2022/09/29 05:13:23;;;;;;;18.93;13.30;;;;;;;;;;5073277;28;20955;-72
2022/09/29 05:15:50;;;;;;;27.30;18.53;;;;;;;;;;5073227;28;20478;-72
2022/09/29 05:18:17;;;;;;;31.63;22.37;;;;;;;;;;5073396;28;20952;-72
2022/09/29 05:20:44;;;;;;;15.00;9.47;;;;;;;;;;5073357;28;20443;-72
2022/09/29 05:23:11;;;;;;;32.23;19.00;;;;;;;;;;5073098;28;20478;-72
2022/09/29 05:25:39;;;;;;;39.67;24.43;;;;;;;;;;5072825;28;21024;-72
2022/09/29 05:28:08;;;;;;;12.77;8.40;;;;;;;;;;5073192;28;20452;-72
2022/09/29 05:30:35;;;;;;;13.67;9.10;;;;;;;;;;5073115;28;20497;-72
2022/09/29 05:33:03;;;;;;;15.83;9.57;;;;;;;;;;5071490;28;20806;-72
2022/09/29 05:35:30;;;;;;;11.37;8.57;;;;;;;;;;5072075;28;20476;-72
2022/09/29 05:37:57;;;;;;;10.23;7.40;;;;;;;;;;5072749;28;20467;-72
2022/09/29 05:40:24;;;;;;;15.53;8.23;;;;;;;;;;5072632;28;20456;-72
2022/09/29 05:42:52;;;;;;;9.40;6.57;;;;;;;;;;5072381;28;20462;-72
2022/09/29 05:45:20;;;;;;;6.97;5.40;;;;;;;;;;5071747;28;20994;-72
2022/09/29 05:47:47;;;;;;;7.23;5.30;;;;;;;;;;5071910;28;20460;-72
2022/09/29 05:50:15;;;;;;;6.53;5.30;;;;;;;;;;5072117;28;20483;-72
2022/09/29 05:52:42;;;;;;;5.30;4.53;;;;;;;;;;5071963;28;20459;-72
2022/09/29 05:55:09;;;;;;;9.40;5.40;;;;;;;;;;5071527;28;20574;-72
2022/09/29 05:57:37;;;;;;;5.23;4.70;;;;;;;;;;5071607;28;20448;-72
2022/09/29 06:00:04;;;;;;;9.50;5.93;;;;;;;;;;5072047;28;20933;-72
2022/09/29 06:02:33;;;;;;;10.30;4.23;;;;;;;;;;5071870;28;20949;-72
2022/09/29 06:05:00;;;;;;;7.63;5.00;;;;;;;;;;5071524;28;20472;-72
2022/09/29 06:07:28;;;;;;;8.53;4.20;;;;;;;;;;5071646;28;20452;-72
2022/09/29 06:09:55;;;;;;;4.17;3.30;;;;;;;;;;5071820;28;20494;-72
2022/09/29 06:12:22;;;;;;;3.57;3.27;;;;;;;;;;5075782;28;20799;-73
2022/09/29 06:14:49;;;;;;;8.03;3.10;;;;;;;;;;5075592;28;20474;-72
2022/09/29 06:17:16;;;;;;;8.30;4.67;;;;;;;;;;5076012;28;20463;-72
2022/09/29 06:19:45;;;;;;;3.97;3.53;;;;;;;;;;5075702;28;20455;-72
2022/09/29 06:22:12;;;;;;;3.13;2.83;;;;;;;;;;5075873;28;20451;-72
2022/09/29 06:24:39;;;;;;;3.90;2.70;;;;;;;;;;5075115;28;20471;-72
2022/09/29 06:27:06;;;;;;;3.83;2.60;;;;;;;;;;5075733;28;20812;-72
2022/09/29 06:29:33;;;;;;;2.40;2.20;;;;;;;;;;5075323;28;20487;-72
2022/09/29 06:32:00;;;;;;;3.30;3.00;;;;;;;;;;5075734;28;20470;-72
2022/09/29 06:34:28;;;;;;;3.40;3.10;;;;;;;;;;5075490;28;20479;-72
2022/09/29 06:39:41;;;;;;;2.50;2.00;;;;;;;;;;5075329;28;20541;-72
2022/09/29 06:42:08;;;;;;;3.20;2.37;;;;;;;;;;5075128;28;20949;-72
2022/09/29 06:44:35;;;;;;;2.67;2.17;;;;;;;;;;5073254;28;21089;-72
2022/09/29 06:47:02;;;;;;;2.57;2.10;;;;;;;;;;5066948;28;20454;-72
2022/09/29 06:49:29;;;;;;;2.43;2.20;;;;;;;;;;5072860;28;20463;-72
2022/09/29 06:51:58;;;;;;;2.00;1.80;;;;;;;;;;5073527;28;20495;-72
2022/09/29 06:54:25;;;;;;;2.10;1.80;;;;;;;;;;5073233;28;21015;-72
2022/09/29 06:56:54;;;;;;;2.53;1.80;;;;;;;;;;5073475;28;20455;-72
2022/09/29 06:59:21;;;;;;;3.10;2.50;;;;;;;;;;5073011;28;20560;-73
2022/09/29 07:01:48;;;;;;;2.00;1.80;;;;;;;;;;5073399;28;20968;-72
2022/09/29 07:04:16;;;;;;;4.40;2.70;;;;;;;;;;5073395;28;20570;-72
2022/09/29 07:06:44;;;;;;;5.03;2.80;;;;;;;;;;5073505;28;20447;-72
2022/09/29 07:09:14;;;;;;;3.37;2.90;;;;;;;;;;5073550;28;20831;-72
2022/09/29 07:11:45;;;;;;;3.90;2.77;;;;;;;;;;5073487;28;20901;-72
2022/09/29 07:14:12;;;;;;;11.33;4.07;;;;;;;;;;5070030;28;20447;-71
2022/09/29 07:16:39;;;;;;;6.50;4.60;;;;;;;;;;5053089;28;20460;-72
2022/09/29 07:19:06;;;;;;;4.93;3.93;;;;;;;;;;5053280;28;20456;-72
2022/09/29 07:21:34;;;;;;;4.50;2.53;;;;;;;;;;5053151;28;20449;-72
2022/09/29 07:24:01;;;;;;;2.77;2.47;;;;;;;;;;5052075;28;20456;-72
2022/09/29 07:26:30;;;;;;;2.07;1.87;;;;;;;;;;5053441;28;20455;-72
2022/09/29 07:28:57;;;;;;;2.27;2.07;;;;;;;;;;5060854;28;20448;-72
2022/09/29 07:31:24;;;;;;;4.43;2.30;;;;;;;;;;5074203;28;20590;-72
2022/09/29 07:33:52;;;;;;;4.30;1.90;;;;;;;;;;5073704;28;20447;-72
2022/09/29 07:36:20;;;;;;;2.53;1.97;;;;;;;;;;5074351;28;20924;-72
2022/09/29 07:38:47;;;;;;;2.87;2.43;;;;;;;;;;5073996;28;20471;-72
2022/09/29 07:41:14;;;;;;;2.67;2.47;;;;;;;;;;5074135;28;20450;-72
2022/09/29 07:43:43;;;;;;;5.23;4.23;;;;;;;;;;5074109;28;20456;-72
2022/09/29 07:46:10;;;;;;;3.03;2.27;;;;;;;;;;5074155;28;20468;-72
2022/09/29 07:48:38;;;;;;;3.90;2.87;;;;;;;;;;5074065;28;20463;-73
2022/09/29 07:51:07;;;;;;;4.00;2.50;;;;;;;;;;5074048;28;20495;-72
2022/09/29 07:53:35;;;;;;;4.33;3.33;;;;;;;;;;5073708;28;20463;-73
2022/09/29 07:56:05;;;;;;;6.97;3.27;;;;;;;;;;5073884;28;20468;-73
2022/09/29 07:58:33;;;;;;;5.90;4.00;;;;;;;;;;5073725;28;20455;-72
2022/09/29 08:01:04;;;;;;;5.60;5.07;;;;;;;;;;5073926;28;20448;-72
2022/09/29 08:03:31;;;;;;;5.80;4.50;;;;;;;;;;5073707;28;20818;-72
2022/09/29 08:05:58;;;;;;;5.80;3.77;;;;;;;;;;5073592;28;20475;-72
2022/09/29 08:08:26;;;;;;;4.03;3.10;;;;;;;;;;5073197;28;20490;-72
2022/09/29 08:10:53;;;;;;;6.10;3.13;;;;;;;;;;5073643;28;20483;-72
2022/09/29 08:13:20;;;;;;;6.47;4.03;;;;;;;;;;5073830;28;20792;-72
2022/09/29 08:15:47;;;;;;;4.07;2.80;;;;;;;;;;5073279;28;20468;-72
2022/09/29 08:18:15;;;;;;;4.87;3.80;;;;;;;;;;5073473;28;20452;-72
2022/09/29 08:20:43;;;;;;;40.43;27.73;;;;;;;;;;5073512;28;20824;-72
2022/09/29 08:23:10;;;;;;;2.23;2.03;;;;;;;;;;5073543;28;20454;-72
2022/09/29 08:25:37;;;;;;;3.13;2.77;;;;;;;;;;5073325;28;20476;-72
2022/09/29 08:28:04;;;;;;;7.63;5.77;;;;;;;;;;5073625;28;20454;-73
2022/09/29 08:30:31;;;;;;;50.53;33.63;;;;;;;;;;5073320;28;21022;-72
2022/09/29 08:32:58;;;;;;;8.10;6.00;;;;;;;;;;5073611;28;20459;-72
2022/09/29 08:35:27;;;;;;;4.33;3.93;;;;;;;;;;5073023;28;20991;-73
2022/09/29 08:37:57;;;;;;;1.70;1.40;;;;;;;;;;5073005;28;20916;-72
2022/09/29 08:40:25;;;;;;;9.57;6.80;;;;;;;;;;5073428;28;20447;-73
2022/09/29 08:42:58;;;;;;;10.43;6.40;;;;;;;;;;5073201;28;20452;-72
2022/09/29 08:45:28;;;;;;;2.27;1.90;;;;;;;;;;5072809;28;20472;-73
2022/09/29 08:48:02;;;;;;;5.00;4.57;;;;;;;;;;5073257;28;20444;-73
2022/09/29 08:50:32;;;;;;;8.07;7.30;;;;;;;;;;5072801;28;20495;-73
2022/09/29 08:53:00;;;;;;;3.80;2.13;;;;;;;;;;5072977;28;20452;-72
2022/09/29 08:55:33;;;;;;;3.40;2.20;;;;;;;;;;5072720;28;20840;-73
2022/09/29 08:58:01;;;;;;;3.73;1.53;;;;;;;;;;5072992;28;20462;-72
2022/09/29 09:00:37;;;;;;;3.50;2.43;;;;;;;;;;5072911;28;20447;-73
2022/09/29 09:03:12;;;;;;;2.40;1.87;;;;;;;;;;5072930;28;20508;-73
2022/09/29 09:06:00;;;;;;;2.60;2.30;;;;;;;;;;5072486;28;20995;-73
2022/09/29 09:08:36;;;;;;;4.50;4.10;;;;;;;;;;5072518;28;20505;-73
2022/09/29 09:11:07;;;;;;;5.23;4.23;;;;;;;;;;5072547;28;20487;-76
2022/09/29 09:13:45;;;;;;;1.90;1.67;;;;;;;;;;5072397;28;20464;-76
2022/09/29 09:16:16;;;;;;;2.57;2.00;;;;;;;;;;5072490;28;20482;-77
2022/09/29 09:19:00;;;;;;;2.47;1.60;;;;;;;;;;5072373;28;20909;-76
2022/09/29 09:21:32;;;;;;;2.60;1.50;;;;;;;;;;5072584;28;20447;-76
2022/09/29 09:24:05;;;;;;;3.03;1.60;;;;;;;;;;5072315;28;20455;-76
2022/09/29 09:26:34;;;;;;;4.13;2.00;;;;;;;;;;5072432;28;20470;-73
2022/09/29 09:29:03;;;;;;;1.93;1.40;;;;;;;;;;5072528;28;20447;-74
2022/09/29 09:31:34;;;;;;;3.30;1.90;;;;;;;;;;5072332;28;20487;-73
2022/09/29 09:34:03;;;;;;;2.80;1.67;;;;;;;;;;5071860;28;20458;-74
2022/09/29 09:36:35;;;;;;;2.60;1.77;;;;;;;;;;5072083;28;20451;-73
2022/09/29 09:39:05;;;;;;;3.40;1.70;;;;;;;;;;5072704;28;20967;-73
2022/09/29 09:41:34;;;;;;;2.00;1.40;;;;;;;;;;5072194;28;20819;-74
2022/09/29 09:44:03;;;;;;;1.70;1.57;;;;;;;;;;5071587;28;20456;-73
2022/09/29 09:46:34;;;;;;;1.53;1.23;;;;;;;;;;5071636;28;21015;-73
2022/09/29 09:49:02;;;;;;;2.07;1.60;;;;;;;;;;5072256;28;20459;-73
2022/09/29 09:51:43;;;;;;;1.90;1.60;;;;;;;;;;5072032;28;20483;-73
2022/09/29 09:54:12;;;;;;;2.63;1.60;;;;;;;;;;5071902;28;20451;-74
2022/09/29 09:56:46;;;;;;;1.50;1.13;;;;;;;;;;5071782;28;20483;-73
2022/09/29 09:59:17;;;;;;;2.87;2.17;;;;;;;;;;5072042;28;20451;-74
2022/09/29 10:01:45;;;;;;;1.80;1.53;;;;;;;;;;5072011;28;20796;-74
2022/09/29 10:04:13;;;;;;;2.13;1.60;;;;;;;;;;5071849;28;20509;-73
2022/09/29 10:06:42;;;;;;;2.50;1.50;;;;;;;;;;5071772;28;20466;-73
2022/09/29 10:09:12;;;;;;;2.57;1.47;;;;;;;;;;5071862;28;20462;-73
2022/09/29 10:11:41;;;;;;;2.00;1.40;;;;;;;;;;5071763;28;20498;-73
2022/09/29 10:14:12;;;;;;;3.67;1.60;;;;;;;;;;5071577;28;20458;-73
2022/09/29 10:16:42;;;;;;;1.90;1.50;;;;;;;;;;5071878;28;20456;-73
2022/09/29 10:19:10;;;;;;;2.20;1.40;;;;;;;;;;5071982;28;20443;-73
2022/09/29 10:21:38;;;;;;;1.90;1.50;;;;;;;;;;5071710;28;20444;-74
2022/09/29 10:24:20;;;;;;;3.23;1.70;;;;;;;;;;5071625;28;20447;-73
2022/09/29 10:26:48;;;;;;;2.33;1.70;;;;;;;;;;5071643;28;20485;-72
2022/09/29 10:29:23;;;;;;;2.07;1.70;;;;;;;;;;5071721;28;20445;-72
2022/09/29 10:32:02;;;;;;;2.27;1.83;;;;;;;;;;5071751;28;21000;-73
2022/09/29 10:34:30;;;;;;;1.80;1.60;;;;;;;;;;5071259;28;20479;-72
2022/09/29 10:36:58;;;;;;;5.30;1.73;;;;;;;;;;5071513;28;20470;-73
2022/09/29 10:39:34;;;;;;;3.90;1.70;;;;;;;;;;5071721;28;20451;-72
2022/09/29 10:42:03;;;;;;;2.07;1.87;;;;;;;;;;5071559;28;20443;-73
2022/09/29 10:44:34;;;;;;;2.13;1.93;;;;;;;;;;5070855;28;20483;-73
2022/09/29 10:47:01;;;;;;;3.97;2.03;;;;;;;;;;5071623;28;20450;-73
2022/09/29 10:49:29;;;;;;;2.27;1.70;;;;;;;;;;5071653;28;20459;-72
2022/09/29 10:52:04;;;;;;;1.90;1.50;;;;;;;;;;5071722;28;20493;-73
2022/09/29 10:54:32;;;;;;;2.70;1.90;;;;;;;;;;5071180;28;20487;-74
2022/09/29 10:57:01;;;;;;;3.57;2.90;;;;;;;;;;5071755;28;20801;-73
2022/09/29 10:59:28;;;;;;;4.33;1.97;;;;;;;;;;5074911;28;20466;-73
2022/09/29 11:01:57;;;;;;;2.70;2.33;;;;;;;;;;5075172;28;20447;-73
2022/09/29 11:04:26;;;;;;;3.00;2.50;;;;;;;;;;5074943;28;20475;-73
2022/09/29 11:06:54;;;;;;;17.47;2.50;;;;;;;;;;5075110;28;20542;-73
2022/09/29 11:09:31;;;;;;;2.30;2.10;;;;;;;;;;5075071;28;20455;-72
2022/09/29 11:12:00;;;;;;;3.07;2.07;;;;;;;;;;5075115;28;20494;-73
2022/09/29 11:14:30;;;;;;;2.93;2.17;;;;;;;;;;5074580;28;20487;-73
2022/09/29 11:16:59;;;;;;;3.30;1.83;;;;;;;;;;5074892;28;20451;-73
2022/09/29 11:19:26;;;;;;;2.73;2.30;;;;;;;;;;5074813;28;20829;-72
2022/09/29 11:22:16;;;;;;;2.70;2.17;;;;;;;;;;5074746;28;20524;-73
2022/09/29 11:24:52;;;;;;;3.90;2.50;;;;;;;;;;5074275;28;20820;-73
2022/09/29 11:27:25;;;;;;;5.97;4.90;;;;;;;;;;5074610;28;20485;-73
2022/09/29 11:29:58;;;;;;;3.57;2.90;;;;;;;;;;5074416;28;20460;-73
2022/09/29 11:32:34;;;;;;;3.27;2.77;;;;;;;;;;5074711;28;20495;-73
2022/09/29 11:35:06;;;;;;;3.20;2.10;;;;;;;;;;5074277;28;20846;-73
2022/09/29 11:37:42;;;;;;;41.73;20.27;;;;;;;;;;5074376;28;20839;-73
2022/09/29 11:40:13;;;;;;;2.97;2.70;;;;;;;;;;5074489;28;20776;-73
2022/09/29 11:42:47;;;;;;;7.03;6.00;;;;;;;;;;5074365;28;20452;-72
2022/09/29 11:45:17;;;;;;;9.53;8.53;;;;;;;;;;5074418;28;20485;-73
2022/09/29 11:47:54;;;;;;;6.53;6.03;;;;;;;;;;5075140;28;20799;-73
2022/09/29 11:50:32;;;;;;;3.20;2.53;;;;;;;;;;5075079;28;20451;-72
2022/09/29 11:53:08;;;;;;;2.77;2.53;;;;;;;;;;5075005;28;20733;-73
2022/09/29 11:55:50;;;;;;;4.17;3.87;;;;;;;;;;5071693;28;20506;-74
2022/09/29 11:58:25;;;;;;;2.27;2.07;;;;;;;;;;5073103;28;20462;-73
2022/09/29 12:01:00;;;;;;;3.93;1.80;;;;;;;;;;5081283;28;20929;-73
2022/09/29 12:03:31;;;;;;;2.97;2.17;;;;;;;;;;5073432;28;20482;-74
2022/09/29 12:06:02;;;;;;;2.23;2.03;;;;;;;;;;5073444;28;20472;-73
2022/09/29 12:08:40;;;;;;;5.20;4.70;;;;;;;;;;5080395;28;20463;-72
2022/09/29 12:11:10;;;;;;;7.30;4.47;;;;;;;;;;5093211;28;20450;-73
2022/09/29 12:13:43;;;;;;;3.20;2.20;;;;;;;;;;5093863;28;20443;-73
2022/09/29 12:16:13;;;;;;;6.23;2.43;;;;;;;;;;5093700;28;20515;-73
2022/09/29 12:18:42;;;;;;;4.53;1.73;;;;;;;;;;5094536;28;20494;-73
2022/09/29 12:21:10;;;;;;;1.83;1.50;;;;;;;;;;5094613;28;20982;-72
2022/09/29 12:23:39;;;;;;;2.30;2.00;;;;;;;;;;5094345;28;20451;-73
2022/09/29 12:26:09;;;;;;;3.47;2.07;;;;;;;;;;5094411;28;20467;-73
2022/09/29 12:28:38;;;;;;;2.40;2.00;;;;;;;;;;5094751;28;20802;-72
2022/09/29 12:31:10;;;;;;;2.43;1.80;;;;;;;;;;5094163;28;20457;-72
2022/09/29 12:33:41;;;;;;;3.30;3.07;;;;;;;;;;5094193;28;20455;-73
2022/09/29 12:38:57;;;;;;;4.17;3.57;;;;;;;;;;5093968;28;20438;-72
2022/09/29 12:41:27;;;;;;;2.93;2.53;;;;;;;;;;5094201;28;20813;-72
2022/09/29 12:43:59;;;;;;;3.60;3.13;;;;;;;;;;5094491;28;20482;-73
2022/09/29 12:46:29;;;;;;;3.77;3.27;;;;;;;;;;5077520;28;20468;-73
2022/09/29 12:49:01;;;;;;;2.40;2.20;;;;;;;;;;5071723;28;20766;-73
2022/09/29 12:51:30;;;;;;;3.60;2.60;;;;;;;;;;5072350;28;20485;-73
2022/09/29 12:54:03;;;;;;;3.43;2.43;;;;;;;;;;5071934;28;20451;-73
2022/09/29 12:56:34;;;;;;;6.80;6.20;;;;;;;;;;5072178;28;20494;-73
2022/09/29 12:59:05;;;;;;;2.30;1.97;;;;;;;;;;5072589;28;20967;-73
2022/09/29 13:01:35;;;;;;;2.30;2.00;;;;;;;;;;5072405;28;20491;-73
2022/09/29 13:04:29;;;;;;;4.37;2.30;;;;;;;;;;5072392;28;21001;-73
2022/09/29 13:07:08;;;;;;;3.57;3.20;;;;;;;;;;5072139;28;20455;-73
2022/09/29 13:09:44;;;;;;;2.67;2.27;;;;;;;;;;5071817;28;20462;-73
2022/09/29 13:12:21;;;;;;;3.90;2.40;;;;;;;;;;5072096;28;20483;-73
2022/09/29 13:14:52;;;;;;;2.97;2.70;;;;;;;;;;5071795;28;20498;-73
2022/09/29 13:17:30;;;;;;;4.50;4.00;;;;;;;;;;5071795;28;20466;-73
2022/09/29 13:20:05;;;;;;;2.77;2.57;;;;;;;;;;5071632;28;20452;-73
2022/09/29 13:23:05;;;;;;;2.53;2.33;;;;;;;;;;5071632;28;20464;-73
2022/09/29 13:25:36;;;;;;;3.60;2.40;;;;;;;;;;5009205;28;20482;-73
2022/09/29 13:28:22;;;;;;;3.17;2.40;;;;;;;;;;5009815;28;20459;-73
2022/09/29 13:30:49;;;;;;;2.53;2.27;;;;;;;;;;5047199;28;20452;-73
2022/09/29 13:33:20;;;;;;;3.00;2.30;;;;;;;;;;5071699;28;20484;-73
2022/09/29 13:35:50;;;;;;;3.07;2.37;;;;;;;;;;5071426;28;20468;-73
2022/09/29 13:38:18;;;;;;;3.30;2.83;;;;;;;;;;5071645;28;20470;-73
2022/09/29 13:41:01;;;;;;;2.80;2.33;;;;;;;;;;5071697;28;20480;-73
2022/09/29 13:43:38;;;;;;;3.90;2.63;;;;;;;;;;5058711;28;20857;-74
2022/09/29 13:46:20;;;;;;;2.37;2.17;;;;;;;;;;5071297;28;20472;-73
2022/09/29 13:48:51;;;;;;;2.27;2.07;;;;;;;;;;5071345;28;20462;-73
2022/09/29 13:51:51;;;;;;;3.17;2.57;;;;;;;;;;5071578;28;20531;-73
2022/09/29 13:54:24;;;;;;;4.57;2.27;;;;;;;;;;5071587;28;20471;-73
2022/09/29 13:56:52;;;;;;;4.63;2.37;;;;;;;;;;5071724;28;20463;-73
2022/09/29 13:59:22;;;;;;;4.47;3.40;;;;;;;;;;5071185;28;20448;-73
2022/09/29 14:01:50;;;;;;;3.50;2.60;;;;;;;;;;5071388;28;20444;-73
2022/09/29 14:04:39;;;;;;;2.90;2.60;;;;;;;;;;5071220;28;20528;-73
2022/09/29 14:07:07;;;;;;;3.73;2.70;;;;;;;;;;5071322;28;20460;-73
2022/09/29 14:09:37;;;;;;;6.00;3.40;;;;;;;;;;5071339;28;20864;-73
2022/09/29 14:12:07;;;;;;;2.73;2.50;;;;;;;;;;5071443;28;20872;-73
2022/09/29 14:14:36;;;;;;;10.57;7.60;;;;;;;;;;5071352;28;20480;-73
2022/09/29 14:17:06;;;;;;;9.57;7.00;;;;;;;;;;5072522;28;20530;-73
2022/09/29 14:19:38;;;;;;;2.90;2.60;;;;;;;;;;5072695;28;20905;-73
2022/09/29 14:22:06;;;;;;;61.70;33.10;;;;;;;;;;5072490;28;20459;-73
2022/09/29 14:24:48;;;;;;;3.43;2.70;;;;;;;;;;5070850;28;20472;-73
2022/09/29 14:27:30;;;;;;;4.40;2.87;;;;;;;;;;5070458;28;20539;-73
2022/09/29 14:30:04;;;;;;;19.47;10.87;;;;;;;;;;5070391;28;20451;-73
2022/09/29 14:32:41;;;;;;;42.93;24.80;;;;;;;;;;5073345;28;20490;-74
2022/09/29 14:35:15;;;;;;;46.77;22.33;;;;;;;;;;5075124;28;20477;-73
2022/09/29 14:37:42;;;;;;;6.40;4.63;;;;;;;;;;5075636;28;20467;-73
2022/09/29 14:40:29;;;;;;;6.20;2.50;;;;;;;;;;5076054;28;20479;-73
2022/09/29 14:43:13;;;;;;;3.80;2.57;;;;;;;;;;5076293;28;20478;-73
2022/09/29 14:54:42;;;;;;;11.67;7.33;;;;;;;;;;5013970;28;20459;-73
2022/09/29 14:57:16;;;;;;;4.50;2.93;;;;;;;;;;5064874;28;20517;-73
2022/09/29 14:59:52;;;;;;;4.37;3.40;;;;;;;;;;5076003;28;20463;-73
2022/09/29 15:02:22;;;;;;;12.17;6.00;;;;;;;;;;5076252;28;20494;-73
2022/09/29 15:04:49;;;;;;;7.80;5.30;;;;;;;;;;5075694;28;20980;-73
2022/09/29 15:07:17;;;;;;;5.27;4.57;;;;;;;;;;5075977;28;21089;-73
2022/09/29 15:09:46;;;;;;;11.30;7.40;;;;;;;;;;5075826;28;20451;-73
2022/09/29 15:12:16;;;;;;;31.17;17.03;;;;;;;;;;5075711;28;20483;-73
2022/09/29 15:14:43;;;;;;;12.60;6.47;;;;;;;;;;5075461;28;20486;-73